Oelwein, IA

2:14 AM CDT on April 23, 2017 (GMT -0500)
Oelwein Municipal

Weather History for KOLZ - March, 2013

Change the Weather History Date:

Sunday, March 10, 2013

  Actual Average Record
Temperature  
Mean Temperature 35 °F -  
Max Temperature 37 °F 40 °F 65 °F (1967)
Min Temperature 33 °F 21 °F -8 °F (1984)
Degree Days  
Heating Degree Days 30    
Moisture  
Dew Point 35 °F    
Average Humidity 99    
Maximum Humidity 100    
Minimum Humidity 93    
Precipitation  
Precipitation 0.71 in - - ()
Sea Level Pressure  
Sea Level Pressure 29.69 in    
Wind  
Wind Speed 9 mph (NNE)    
Max Wind Speed 25 mph    
Max Gust Speed 32 mph    
Visibility 4 miles    
Events Fog , Rain , Snow    
Averages and records for this station are not official NWS values.
T = Trace of Precipitation, MM = Missing Value Source: NWS Daily Summary

Daily Weather History Graph

Daily Weather History Graph

Search for Another Location

Airport or City:

Trip Planner

Search our weather history database for the weather conditions in past years. The results will help you decide how hot, cold, wet, or windy it might be!

Date:

Astronomy

Mar. 10, 2013 Rise Set
Actual Time 7:28 AM CDT 7:08 PM CDT
Civil Twilight 6:59 AM CDT 7:36 PM CDT
Nautical Twilight 6:27 AM CDT 8:09 PM CDT
Astronomical Twilight 5:54 AM CDT 8:42 PM CDT
Moon 6:29 AM CDT (3/10) 6:16 PM CDT (3/10)
Length of Visible Light 12h 36m
Length of Day
11h 40m
Waning Crescent, 2% of the Moon is Illuminated
Mar 10
Waning Crescent
Mar 11
New
Mar 19
First Quarter
Mar 27
Full
Apr 2
Last Quarter

Hourly Weather History & Observations

Time (CDT) Temp. Windchill Dew Point Humidity Pressure Visibility Wind Dir Wind Speed Gust Speed Precip Events Conditions
12:15 AM 35.6 °F - 35.6 °F 100% 29.69 in 0.2 mi Calm Calm - 0.01 in Rain Light Rain
12:35 AM 37.4 °F - 35.6 °F 93% 29.70 in 0.2 mi Calm Calm - 0.01 in Rain Light Rain
12:55 AM 35.6 °F - 35.6 °F 100% 29.71 in 0.2 mi Calm Calm - 0.01 in Fog Fog
1:15 AM 35.6 °F - 35.6 °F 100% 29.71 in 0.5 mi Calm Calm - 0.02 in Rain Heavy Rain
1:35 AM 35.6 °F 29.9 °F 35.6 °F 100% 29.71 in 0.5 mi NNE 6.9 mph - 0.04 in Rain Light Rain
1:55 AM 35.6 °F - 35.6 °F 100% 29.71 in 0.5 mi Calm Calm - 0.05 in   Light Drizzle
3:15 AM 35.6 °F 29.9 °F 35.6 °F 100% 29.70 in 0.5 mi NE 6.9 mph - 0.01 in Rain Rain
3:35 AM 35.6 °F 30.7 °F 35.6 °F 100% 29.69 in 0.5 mi NE 5.8 mph - 0.01 in   Drizzle
3:55 AM 35.6 °F - 35.6 °F 100% 29.70 in 0.5 mi Calm Calm - 0.03 in Rain Rain
4:15 AM 35.6 °F 29.2 °F 35.6 °F 100% 29.66 in 0.5 mi ENE 8.1 mph - 0.04 in Rain Light Rain
4:35 AM 35.6 °F 28.0 °F 35.6 °F 100% 29.61 in 0.5 mi ENE 10.4 mph - 0.04 in Fog Fog
4:55 AM 37.4 °F 32.1 °F 35.6 °F 93% 29.63 in 1.5 mi NE 6.9 mph - 0.04 in   Mostly Cloudy
5:15 AM 35.6 °F 28.6 °F 35.6 °F 100% 29.65 in 1.0 mi NNE 9.2 mph - N/A   Overcast
5:35 AM 35.6 °F 30.7 °F 35.6 °F 100% 29.65 in 0.5 mi NNE 5.8 mph - N/A Fog Fog
5:55 AM 35.6 °F 30.7 °F 35.6 °F 100% 29.67 in 0.5 mi NNE 5.8 mph - N/A Fog Fog
6:15 AM 35.6 °F 29.2 °F 35.6 °F 100% 29.68 in 0.5 mi NE 8.1 mph - N/A Fog Fog
6:35 AM 35.6 °F 31.7 °F 35.6 °F 100% 29.68 in 0.5 mi NE 4.6 mph - N/A Fog Fog
6:55 AM 35.6 °F 29.9 °F 35.6 °F 100% 29.68 in 0.5 mi North 6.9 mph - N/A Fog Fog
7:15 AM 35.6 °F 30.7 °F 35.6 °F 100% 29.71 in 0.5 mi North 5.8 mph - N/A Rain Light Rain
7:35 AM 35.6 °F 29.2 °F 35.6 °F 100% 29.73 in 0.2 mi North 8.1 mph - 0.01 in   Drizzle
7:55 AM 35.6 °F 27.1 °F 35.6 °F 100% 29.72 in 0.5 mi North 12.7 mph - 0.01 in   Drizzle
8:15 AM 35.6 °F 27.1 °F 35.6 °F 100% 29.72 in 1.2 mi North 12.7 mph - N/A Rain Light Rain
8:35 AM 35.6 °F 27.5 °F 35.6 °F 100% 29.73 in 1.8 mi North 11.5 mph - N/A   Overcast
8:55 AM 35.6 °F 26.2 °F 35.6 °F 100% 29.73 in 1.8 mi North 15.0 mph 19.6 mph N/A Rain Light Rain
9:15 AM 35.6 °F 25.5 °F 35.6 °F 100% 29.72 in 2.5 mi North 17.3 mph 21.9 mph 0.01 in Rain Light Rain
9:35 AM 35.6 °F 26.2 °F 35.6 °F 100% 29.74 in 2.5 mi NNE 15.0 mph - 0.01 in   Overcast
9:55 AM 35.6 °F 26.6 °F 35.6 °F 100% 29.75 in 2.0 mi NNE 13.8 mph - 0.01 in   Drizzle
10:15 AM 35.6 °F 26.6 °F 35.6 °F 100% 29.76 in 2.5 mi NNE 13.8 mph - 0.01 in Rain Light Rain
10:35 AM 35.6 °F 26.6 °F 35.6 °F 100% 29.76 in 5.0 mi NNE 13.8 mph 19.6 mph 0.01 in   Overcast
10:55 AM 35.6 °F 25.5 °F 35.6 °F 100% 29.76 in 3.0 mi NNE 17.3 mph 21.9 mph 0.03 in Rain Rain
11:15 AM 35.6 °F 24.5 °F 35.6 °F 100% 29.72 in 1.8 mi NNE 20.7 mph 25.3 mph 0.06 in   Overcast
11:35 AM 35.6 °F 25.5 °F 35.6 °F 100% 29.73 in 3.0 mi NNE 17.3 mph - 0.10 in Rain Light Rain
11:55 AM 35.6 °F 25.9 °F 35.6 °F 100% 29.74 in 7.0 mi NNE 16.1 mph 24.2 mph 0.11 in   Overcast
12:35 PM 35.6 °F 26.2 °F 35.6 °F 100% 29.75 in 10.0 mi NNE 15.0 mph - N/A Rain Light Rain
12:55 PM 35.6 °F 25.5 °F 35.6 °F 100% 29.73 in 4.0 mi NNE 17.3 mph - 0.01 in Rain Rain
1:15 PM 35.6 °F 25.9 °F 35.6 °F 100% 29.69 in 7.0 mi NNE 16.1 mph - N/A Rain Light Rain
1:35 PM 35.6 °F 26.6 °F 35.6 °F 100% 29.71 in 10.0 mi NNE 13.8 mph 20.7 mph N/A   Overcast
1:55 PM 35.6 °F 25.9 °F 35.6 °F 100% 29.71 in 10.0 mi NNE 16.1 mph 20.7 mph N/A   Overcast
2:15 PM 35.6 °F 28.0 °F 35.6 °F 100% 29.71 in 10.0 mi NE 10.4 mph - N/A   Overcast
2:35 PM 35.6 °F 26.6 °F 35.6 °F 100% 29.69 in 10.0 mi NE 13.8 mph - N/A Rain Rain
2:55 PM 35.6 °F 25.5 °F 35.6 °F 100% 29.67 in 7.0 mi NE 17.3 mph 21.9 mph N/A Rain Light Rain
3:15 PM 35.6 °F 25.5 °F 35.6 °F 100% 29.68 in 5.0 mi NE 17.3 mph - N/A Rain Light Rain
3:35 PM 35.6 °F 26.2 °F 35.6 °F 100% 29.69 in 5.0 mi NE 15.0 mph 24.2 mph 0.01 in Rain Light Rain
3:55 PM 35.6 °F 25.5 °F 35.6 °F 100% 29.67 in 2.5 mi NE 17.3 mph - 0.04 in Rain Light Rain
4:15 PM 35.6 °F 25.9 °F 35.6 °F 100% 29.66 in 4.0 mi NE 16.1 mph - 0.03 in Rain Light Rain
4:35 PM 35.6 °F 25.2 °F 35.6 °F 100% 29.66 in 5.0 mi NE 18.4 mph 24.2 mph 0.05 in Rain Light Rain
4:55 PM 35.6 °F 23.4 °F 35.6 °F 100% 29.60 in 5.0 mi NE 25.3 mph 32.2 mph 0.06 in Rain Light Rain
5:15 PM 35.6 °F 24.2 °F 35.6 °F 100% 29.61 in 10.0 mi NE 21.9 mph 29.9 mph N/A Rain Light Rain
5:35 PM 35.6 °F 25.9 °F 35.6 °F 100% 29.62 in 10.0 mi NE 16.1 mph 24.2 mph N/A Rain Light Rain
5:55 PM 35.6 °F 26.6 °F 35.6 °F 100% 29.63 in 7.0 mi NE 13.8 mph 20.7 mph 0.02 in Rain Light Rain
6:15 PM 35.6 °F 25.5 °F 33.8 °F 93% 29.64 in 4.0 mi NE 17.3 mph 20.7 mph 0.03 in Rain Light Rain
6:35 PM 35.6 °F 26.2 °F 35.6 °F 100% 29.66 in 3.0 mi NE 15.0 mph 20.7 mph 0.09 in Rain Rain
7:15 PM 33.8 °F - 33.8 °F 100% 29.69 in 2.0 mi Calm Calm - 0.04 in   Overcast
7:35 PM 33.8 °F 27.7 °F 33.8 °F 100% 29.69 in 3.0 mi North 6.9 mph - 0.07 in   Overcast
7:55 PM 33.8 °F 25.8 °F 33.8 °F 100% 29.68 in 5.0 mi North 10.4 mph - 0.09 in Rain Light Rain
8:15 PM 33.8 °F 25.8 °F 33.8 °F 100% 29.68 in 2.0 mi North 10.4 mph - 0.01 in Snow Light Snow
8:35 PM 33.8 °F 24.8 °F 32.0 °F 93% 29.67 in 4.0 mi North 12.7 mph - 0.02 in Snow Light Snow
8:55 PM 33.8 °F 23.9 °F 33.8 °F 100% 29.66 in 2.5 mi North 15.0 mph - 0.04 in Snow Light Snow
9:15 PM 33.8 °F 24.3 °F 33.8 °F 100% 29.66 in 2.0 mi North 13.8 mph - N/A Snow Light Snow
9:35 PM 33.8 °F 23.5 °F 32.0 °F 93% 29.65 in 1.8 mi North 16.1 mph - 0.01 in Snow Light Snow
9:55 PM 33.8 °F 23.9 °F 33.8 °F 100% 29.67 in 3.0 mi NNE 15.0 mph - 0.02 in Snow Light Snow
10:15 PM 33.8 °F 23.5 °F 33.8 °F 100% 29.66 in 5.0 mi NNE 16.1 mph - 0.01 in Snow Light Snow
10:35 PM 33.8 °F 23.5 °F 33.8 °F 100% 29.66 in 10.0 mi NNE 16.1 mph - 0.02 in   Overcast
10:55 PM 33.8 °F 23.5 °F 33.8 °F 100% 29.67 in 10.0 mi NNE 16.1 mph - 0.03 in   Overcast
11:15 PM 33.8 °F 23.9 °F 33.8 °F 100% 29.67 in 10.0 mi NNE 15.0 mph - N/A   Overcast
11:35 PM 33.8 °F 24.3 °F 33.8 °F 100% 29.67 in 7.0 mi NNE 13.8 mph - 0.01 in   Overcast
12:15 AM 33.8 °F 23.9 °F 32.0 °F 93% 29.67 in 7.0 mi NNE 15.0 mph - N/A   Overcast
12:35 AM 33.8 °F 24.8 °F 32.0 °F 93% 29.67 in 7.0 mi NNE 12.7 mph - N/A   Overcast
12:55 AM 33.8 °F 24.8 °F 32.0 °F 93% 29.67 in 10.0 mi North 12.7 mph - 0.01 in   Overcast